createdAt,value
2022-08-28T00:00:14.484Z,9.50
2022-08-28T00:02:42.431Z,12.02
2022-08-28T00:05:10.887Z,10.65
2022-08-28T00:07:38.752Z,11.65
2022-08-28T00:10:07.737Z,10.65
2022-08-28T00:12:36.781Z,10.60
2022-08-28T00:15:10.349Z,11.15
2022-08-28T00:17:41.630Z,11.57
2022-08-28T00:20:11.565Z,14.57
2022-08-28T00:22:40.175Z,10.45
2022-08-28T00:25:08.973Z,13.20
2022-08-28T00:27:56.067Z,11.20
2022-08-28T00:30:29.389Z,13.55
2022-08-28T00:32:58.813Z,13.05
2022-08-28T00:35:27.013Z,10.02
2022-08-28T00:37:56.447Z,9.95
2022-08-28T00:40:30.451Z,12.13
2022-08-28T00:43:04.547Z,9.50
2022-08-28T00:45:38.760Z,11.68
2022-08-28T00:48:07.643Z,8.95
2022-08-28T00:50:56.747Z,8.88
2022-08-28T00:53:30.160Z,11.70
2022-08-28T00:56:02.511Z,9.20
2022-08-28T01:01:01.847Z,11.43
2022-08-28T01:03:29.842Z,9.68
2022-08-28T01:05:58.782Z,12.10
2022-08-28T01:08:26.807Z,8.82
2022-08-28T01:11:00.127Z,14.30
2022-08-28T01:13:28.540Z,11.88
2022-08-28T01:15:57.326Z,9.68
2022-08-28T01:18:26.493Z,12.30
2022-08-28T01:21:06.671Z,18.45
2022-08-28T01:23:40.959Z,11.85
2022-08-28T01:26:10.849Z,10.20
2022-08-28T01:28:40.312Z,12.27
2022-08-28T01:31:11.695Z,12.15
2022-08-28T01:33:42.560Z,11.82
2022-08-28T01:36:11.798Z,9.68
2022-08-28T01:38:40.242Z,12.35
2022-08-28T01:41:08.707Z,12.00
2022-08-28T01:43:36.827Z,15.50
2022-08-28T01:46:05.899Z,12.73
2022-08-28T01:48:37.399Z,15.85
2022-08-28T01:51:06.053Z,13.13
2022-08-28T01:53:34.225Z,13.43
2022-08-28T01:56:04.657Z,15.23
2022-08-28T01:58:37.871Z,16.60
2022-08-28T02:01:10.860Z,12.50
2022-08-28T02:03:39.445Z,16.67
2022-08-28T02:06:07.733Z,14.15
2022-08-28T02:08:35.579Z,12.95
2022-08-28T02:11:04.270Z,17.38
2022-08-28T02:13:32.236Z,14.88
2022-08-28T02:16:00.387Z,16.42
2022-08-28T02:18:28.655Z,14.20
2022-08-28T02:20:56.472Z,13.25
2022-08-28T02:23:24.405Z,10.98
2022-08-28T02:25:52.463Z,12.23
2022-08-28T02:28:20.719Z,13.30
2022-08-28T02:30:48.713Z,12.93
2022-08-28T02:33:17.509Z,13.98
2022-08-28T02:35:45.975Z,15.90
2022-08-28T02:38:13.997Z,11.45
2022-08-28T02:40:42.746Z,13.07
2022-08-28T02:43:10.983Z,15.73
2022-08-28T02:45:39.181Z,13.07
2022-08-28T02:48:12.033Z,14.90
2022-08-28T02:50:45.359Z,13.32
2022-08-28T02:53:13.640Z,17.08
2022-08-28T02:55:41.495Z,14.02
2022-08-28T02:58:10.887Z,18.00
2022-08-28T03:00:38.948Z,12.75
2022-08-28T03:03:07.004Z,14.52
2022-08-28T03:05:34.752Z,13.63
2022-08-28T03:08:02.475Z,12.32
2022-08-28T03:10:30.403Z,14.10
2022-08-28T03:12:58.546Z,13.10
2022-08-28T03:15:26.366Z,14.38
2022-08-28T03:17:54.907Z,15.27
2022-08-28T03:20:22.993Z,11.57
2022-08-28T03:23:09.681Z,15.88
2022-08-28T03:25:37.535Z,16.35
2022-08-28T03:28:05.743Z,14.45
2022-08-28T03:30:33.731Z,14.98
2022-08-28T03:33:02.416Z,17.13
2022-08-28T03:35:30.497Z,15.98
2022-08-28T03:37:58.746Z,17.10
2022-08-28T03:40:26.616Z,15.30
2022-08-28T03:42:54.674Z,13.00
2022-08-28T03:45:22.793Z,15.05
2022-08-28T03:47:50.983Z,21.35
2022-08-28T03:50:19.943Z,15.45
2022-08-28T03:52:47.961Z,16.65
2022-08-28T03:55:16.248Z,17.08
2022-08-28T03:57:44.382Z,16.45
2022-08-28T04:00:13.416Z,17.40
2022-08-28T04:02:42.784Z,13.55
2022-08-28T04:05:12.486Z,18.25
2022-08-28T04:07:41.844Z,12.88
2022-08-28T04:10:09.925Z,13.10
2022-08-28T04:12:38.357Z,14.57
2022-08-28T04:15:07.162Z,16.05
2022-08-28T04:17:35.533Z,16.73
2022-08-28T04:20:03.600Z,14.63
2022-08-28T04:22:31.662Z,12.98
2022-08-28T04:24:59.846Z,13.07
2022-08-28T04:27:28.001Z,15.25
2022-08-28T04:29:56.100Z,14.45
2022-08-28T04:32:24.936Z,13.95
2022-08-28T04:34:52.852Z,15.10
2022-08-28T04:37:20.856Z,14.07
2022-08-28T04:39:50.886Z,13.40
2022-08-28T04:42:19.028Z,13.40
2022-08-28T04:44:46.960Z,15.70
2022-08-28T04:47:15.046Z,18.50
2022-08-28T04:49:43.383Z,17.63
2022-08-28T04:52:13.097Z,17.73
2022-08-28T04:54:41.583Z,15.85
2022-08-28T04:57:09.854Z,14.43
2022-08-28T04:59:37.980Z,13.15
2022-08-28T05:02:07.104Z,14.90
2022-08-28T05:04:35.090Z,17.55
2022-08-28T05:07:03.262Z,14.93
2022-08-28T05:09:33.048Z,12.88
2022-08-28T05:12:03.176Z,13.20
2022-08-28T05:14:31.966Z,15.57
2022-08-28T05:17:00.196Z,13.65
2022-08-28T05:19:29.178Z,15.48
2022-08-28T05:21:57.879Z,13.07
2022-08-28T05:24:25.980Z,16.70
2022-08-28T05:26:54.193Z,13.45
2022-08-28T05:29:22.092Z,12.45
2022-08-28T05:31:54.396Z,17.35
2022-08-28T05:34:22.271Z,12.38
2022-08-28T05:36:50.212Z,13.65
2022-08-28T05:39:18.500Z,14.63
2022-08-28T05:41:46.938Z,16.05
2022-08-28T05:44:15.643Z,14.77
2022-08-28T05:46:45.540Z,14.73
2022-08-28T05:49:14.751Z,11.90
2022-08-28T05:51:43.489Z,13.05
2022-08-28T05:54:11.549Z,12.60
2022-08-28T05:56:40.580Z,18.90
2022-08-28T05:59:08.802Z,11.18
2022-08-28T06:01:40.132Z,17.08
2022-08-28T06:06:38.404Z,12.15
2022-08-28T06:09:16.547Z,14.27
2022-08-28T06:11:46.421Z,15.48
2022-08-28T06:14:16.203Z,14.95
2022-08-28T06:16:46.791Z,13.32
2022-08-28T06:19:15.062Z,15.27
2022-08-28T06:21:43.014Z,12.40
2022-08-28T06:24:11.854Z,13.48
2022-08-28T06:26:39.727Z,14.02
2022-08-28T06:29:09.127Z,15.32
2022-08-28T06:31:37.557Z,15.13
2022-08-28T06:34:05.948Z,11.15
2022-08-28T06:36:35.674Z,12.70
2022-08-28T06:39:04.025Z,11.70
2022-08-28T06:41:33.387Z,11.00
2022-08-28T06:44:01.550Z,11.95
2022-08-28T06:46:31.708Z,12.18
2022-08-28T06:48:59.467Z,11.02
2022-08-28T06:51:27.289Z,17.75
2022-08-28T06:53:55.487Z,12.60
2022-08-28T06:56:26.619Z,11.82
2022-08-28T06:58:56.662Z,9.65
2022-08-28T07:01:30.381Z,9.38
2022-08-28T07:04:01.047Z,7.97
2022-08-28T07:06:31.752Z,8.82
2022-08-28T07:08:59.730Z,7.78
2022-08-28T07:11:32.628Z,13.45
2022-08-28T07:14:01.053Z,14.60
2022-08-28T07:16:31.140Z,13.85
2022-08-28T07:18:59.643Z,13.02
2022-08-28T07:21:28.146Z,9.55
2022-08-28T07:23:56.169Z,9.57
2022-08-28T07:26:25.796Z,10.50
2022-08-28T07:29:09.455Z,8.55
2022-08-28T07:31:39.209Z,9.07
2022-08-28T07:34:07.254Z,8.23
2022-08-28T07:36:36.300Z,7.78
2022-08-28T07:39:06.512Z,10.15
2022-08-28T07:41:36.773Z,8.85
2022-08-28T07:44:23.671Z,7.68
2022-08-28T07:46:54.189Z,6.25
2022-08-28T07:49:22.080Z,6.57
2022-08-28T07:51:50.113Z,5.43
2022-08-28T07:54:22.426Z,8.98
2022-08-28T07:56:50.574Z,5.00
2022-08-28T07:59:19.340Z,6.57
2022-08-28T08:01:48.407Z,6.60
2022-08-28T08:04:19.062Z,5.88
2022-08-28T08:06:48.294Z,5.75
2022-08-28T08:09:17.368Z,6.05
2022-08-28T08:11:46.054Z,5.50
2022-08-28T08:14:15.428Z,5.32
2022-08-28T08:16:44.745Z,6.72
2022-08-28T08:19:16.947Z,5.32
2022-08-28T08:21:45.738Z,6.70
2022-08-28T08:24:19.769Z,5.40
2022-08-28T08:26:59.878Z,8.45
2022-08-28T08:29:29.888Z,5.85
2022-08-28T08:31:59.159Z,5.57
2022-08-28T08:34:27.037Z,4.72
2022-08-28T08:36:55.433Z,8.57
2022-08-28T08:39:23.662Z,15.40
2022-08-28T08:41:54.912Z,15.02
2022-08-28T08:44:37.871Z,11.90
2022-08-28T08:47:20.666Z,7.05
2022-08-28T08:49:51.858Z,7.53
2022-08-28T08:52:28.289Z,8.70
2022-08-28T08:55:11.470Z,6.93
2022-08-28T08:57:43.955Z,5.30
2022-08-28T09:00:16.066Z,5.25
2022-08-28T09:02:51.649Z,6.90
2022-08-28T09:05:25.362Z,4.35
2022-08-28T09:08:03.800Z,5.18
2022-08-28T09:10:40.942Z,6.15
2022-08-28T09:13:29.104Z,7.50
2022-08-28T09:15:56.927Z,6.85
2022-08-28T09:18:34.607Z,4.97
2022-08-28T09:21:02.652Z,6.85
2022-08-28T09:23:30.616Z,5.63
2022-08-28T09:26:02.033Z,6.80
2022-08-28T09:28:35.515Z,4.70
2022-08-28T09:31:05.735Z,5.30
2022-08-28T09:33:41.596Z,6.75
2022-08-28T09:36:24.935Z,5.60
2022-08-28T09:39:06.609Z,8.10
2022-08-28T09:41:55.477Z,6.55
2022-08-28T09:44:23.466Z,7.45
2022-08-28T09:46:52.444Z,6.68
2022-08-28T09:49:25.066Z,6.38
2022-08-28T09:51:53.083Z,5.70
2022-08-28T09:54:27.293Z,5.90
2022-08-28T09:56:56.029Z,7.25
2022-08-28T09:59:25.912Z,5.75
2022-08-28T10:02:11.932Z,6.28
2022-08-28T10:04:58.270Z,6.72
2022-08-28T10:07:30.536Z,5.80
2022-08-28T10:10:18.766Z,7.13
2022-08-28T10:13:03.297Z,6.75
2022-08-28T10:15:34.215Z,7.25
2022-08-28T10:18:21.024Z,5.25
2022-08-28T10:21:08.193Z,8.32
2022-08-28T10:23:42.203Z,7.63
2022-08-28T10:26:28.757Z,4.40
2022-08-28T10:28:57.563Z,5.72
2022-08-28T10:31:25.443Z,5.07
2022-08-28T10:34:28.858Z,4.10
2022-08-28T10:37:04.233Z,4.95
2022-08-28T10:39:38.486Z,4.15
2022-08-28T10:42:06.761Z,4.13
2022-08-28T10:44:49.716Z,6.03
2022-08-28T10:47:18.557Z,4.57
2022-08-28T10:49:48.118Z,3.90
2022-08-28T10:52:28.730Z,4.10
2022-08-28T10:54:57.282Z,4.15
2022-08-28T10:57:25.129Z,4.40
2022-08-28T10:59:54.656Z,3.85
2022-08-28T11:02:25.157Z,5.30
2022-08-28T11:04:58.225Z,5.30
2022-08-28T11:07:36.200Z,7.20
2022-08-28T11:10:24.495Z,6.45
2022-08-28T11:12:54.093Z,6.00
2022-08-28T11:15:36.353Z,6.43
2022-08-28T11:18:17.669Z,4.70
2022-08-28T11:21:10.162Z,5.63
2022-08-28T11:23:49.061Z,6.22
2022-08-28T11:26:26.215Z,5.65
2022-08-28T11:28:54.662Z,5.03
2022-08-28T11:31:31.723Z,4.85
2022-08-28T11:34:01.534Z,7.28
2022-08-28T11:36:31.388Z,6.10
2022-08-28T11:39:05.756Z,6.00
2022-08-28T11:41:42.384Z,7.68
2022-08-28T11:44:16.062Z,6.85
2022-08-28T11:46:43.945Z,6.15
2022-08-28T11:49:30.516Z,7.45
2022-08-28T11:52:17.027Z,6.93
2022-08-28T11:54:50.821Z,7.22
2022-08-28T11:57:21.906Z,6.97
2022-08-28T12:00:09.688Z,6.50
2022-08-28T12:02:45.432Z,8.93
2022-08-28T12:05:16.566Z,8.60
2022-08-28T12:07:48.572Z,8.32
2022-08-28T12:10:22.244Z,6.63
2022-08-28T12:12:52.579Z,6.57
2022-08-28T12:15:29.827Z,8.25
2022-08-28T12:18:00.581Z,6.50
2022-08-28T12:20:41.439Z,7.63
2022-08-28T12:23:30.912Z,6.68
2022-08-28T12:26:07.101Z,6.70
2022-08-28T12:28:34.956Z,7.55
2022-08-28T12:31:05.832Z,5.05
2022-08-28T12:33:42.363Z,5.68
2022-08-28T12:36:15.699Z,5.00
2022-08-28T12:38:49.698Z,6.65
2022-08-28T12:41:18.456Z,7.90
2022-08-28T12:46:33.381Z,8.45
2022-08-28T12:49:02.555Z,6.30
2022-08-28T12:51:36.203Z,5.75
2022-08-28T12:54:06.257Z,7.45
2022-08-28T12:56:36.402Z,6.22
2022-08-28T12:59:22.906Z,5.88
2022-08-28T13:01:55.266Z,4.82
2022-08-28T13:04:23.268Z,5.47
2022-08-28T13:06:51.239Z,5.82
2022-08-28T13:09:22.065Z,7.05
2022-08-28T13:11:51.482Z,5.75
2022-08-28T13:14:37.802Z,7.50
2022-08-28T13:17:05.856Z,6.07
2022-08-28T13:19:34.981Z,5.60
2022-08-28T13:22:22.996Z,4.93
2022-08-28T13:24:59.339Z,6.72
2022-08-28T13:27:27.462Z,5.47
2022-08-28T13:29:55.663Z,4.95
2022-08-28T13:32:27.722Z,5.15
2022-08-28T13:35:04.952Z,4.22
2022-08-28T13:37:47.862Z,5.53
2022-08-28T13:40:53.175Z,5.00
2022-08-28T13:43:11.201Z,3.28
2022-08-28T13:45:43.468Z,5.45
2022-08-28T13:48:15.458Z,3.60
2022-08-28T13:50:46.754Z,3.92
2022-08-28T13:53:16.464Z,3.95
2022-08-28T13:55:44.213Z,3.30
2022-08-28T13:58:12.413Z,4.45
2022-08-28T14:00:42.201Z,3.67
2022-08-28T14:03:28.709Z,4.43
2022-08-28T14:05:56.622Z,5.60
2022-08-28T14:08:24.914Z,5.13
2022-08-28T14:10:52.913Z,3.20
2022-08-28T14:13:21.536Z,4.95
2022-08-28T14:15:49.356Z,3.88
2022-08-28T14:18:17.922Z,3.25
2022-08-28T14:20:45.894Z,4.40
2022-08-28T14:23:14.528Z,3.63
2022-08-28T14:25:45.904Z,4.20
2022-08-28T14:28:15.479Z,5.70
2022-08-28T14:30:44.779Z,4.40
2022-08-28T14:33:12.933Z,4.53
2022-08-28T14:35:41.942Z,4.20
2022-08-28T14:38:10.586Z,4.78
2022-08-28T14:40:39.513Z,4.90
2022-08-28T14:43:08.538Z,4.93
2022-08-28T14:45:42.847Z,4.60
2022-08-28T14:48:10.890Z,4.43
2022-08-28T14:50:42.451Z,4.68
2022-08-28T14:53:11.293Z,4.30
2022-08-28T14:55:46.836Z,5.20
2022-08-28T14:58:14.759Z,5.22
2022-08-28T15:00:47.291Z,6.47
2022-08-28T15:03:16.286Z,15.82
2022-08-28T15:05:44.510Z,5.28
2022-08-28T15:08:14.524Z,4.88
2022-08-28T15:10:43.528Z,6.53
2022-08-28T15:13:12.185Z,10.27
2022-08-28T15:15:42.362Z,7.32
2022-08-28T15:18:11.630Z,9.65
2022-08-28T15:20:44.090Z,8.15
2022-08-28T15:23:13.210Z,6.15
2022-08-28T15:25:41.616Z,10.45
2022-08-28T15:28:09.722Z,12.85
2022-08-28T15:30:38.025Z,12.32
2022-08-28T15:33:06.372Z,6.57
2022-08-28T15:35:35.814Z,7.72
2022-08-28T15:38:04.522Z,6.97
2022-08-28T15:40:51.484Z,10.52
2022-08-28T15:43:19.344Z,8.45
2022-08-28T15:45:47.357Z,8.00
2022-08-28T15:48:15.774Z,6.75
2022-08-28T15:50:44.146Z,7.18
2022-08-28T15:53:12.478Z,6.32
2022-08-28T15:55:40.742Z,5.60
2022-08-28T15:58:14.102Z,8.07
2022-08-28T16:00:42.291Z,7.20
2022-08-28T16:03:10.803Z,6.43
2022-08-28T16:05:40.686Z,6.43
2022-08-28T16:08:09.131Z,9.18
2022-08-28T16:10:37.580Z,6.63
2022-08-28T16:13:07.834Z,5.90
2022-08-28T16:15:36.164Z,6.78
2022-08-28T16:18:04.420Z,5.88
2022-08-28T16:20:32.632Z,3.50
2022-08-28T16:23:00.558Z,3.47
2022-08-28T16:25:29.805Z,3.42
2022-08-28T16:27:58.002Z,3.67
2022-08-28T16:30:26.972Z,2.72
2022-08-28T16:32:55.122Z,3.45
2022-08-28T16:35:23.411Z,5.43
2022-08-28T16:37:51.404Z,4.22
2022-08-28T16:40:19.505Z,3.53
2022-08-28T16:42:51.630Z,4.40
2022-08-28T16:45:20.701Z,6.75
2022-08-28T16:47:48.562Z,4.00
2022-08-28T16:50:16.843Z,3.67
2022-08-28T16:52:45.090Z,4.45
2022-08-28T16:55:13.218Z,4.07
2022-08-28T16:57:41.428Z,4.22
2022-08-28T17:00:13.709Z,3.40
2022-08-28T17:02:42.404Z,5.97
2022-08-28T17:05:11.291Z,6.30
2022-08-28T17:07:41.134Z,4.50
2022-08-28T17:10:09.894Z,5.80
2022-08-28T17:12:37.900Z,6.38
2022-08-28T17:15:07.378Z,7.10
2022-08-28T17:17:35.595Z,6.75
2022-08-28T17:20:04.631Z,10.18
2022-08-28T17:22:33.709Z,7.32
2022-08-28T17:25:14.916Z,8.73
2022-08-28T17:27:43.239Z,9.50
2022-08-28T17:30:11.717Z,8.20
2022-08-28T17:32:39.720Z,11.73
2022-08-28T17:35:08.274Z,10.35
2022-08-28T17:37:37.397Z,12.75
2022-08-28T17:40:06.094Z,12.20
2022-08-28T17:42:34.641Z,10.50
2022-08-28T17:45:02.935Z,8.90
2022-08-28T17:47:31.222Z,11.50
2022-08-28T17:50:02.953Z,8.98
2022-08-28T17:52:31.238Z,11.32
2022-08-28T17:54:59.292Z,9.35
2022-08-28T17:57:29.146Z,7.57
2022-08-28T18:00:00.514Z,10.10
2022-08-28T18:02:29.051Z,8.15
2022-08-28T18:04:56.957Z,7.60
2022-08-28T18:07:25.061Z,7.90
2022-08-28T18:09:55.866Z,6.70
2022-08-28T18:12:23.626Z,8.15
2022-08-28T18:14:51.641Z,9.13
2022-08-28T18:17:20.758Z,7.72
2022-08-28T18:19:48.752Z,5.97
2022-08-28T18:22:16.536Z,7.05
2022-08-28T18:24:45.088Z,9.38
2022-08-28T18:27:13.343Z,7.45
2022-08-28T18:29:42.660Z,7.18
2022-08-28T18:32:10.658Z,7.43
2022-08-28T18:34:38.358Z,6.82
2022-08-28T18:37:06.300Z,7.45
2022-08-28T18:39:37.092Z,9.45
2022-08-28T18:42:06.189Z,7.20
2022-08-28T18:44:34.350Z,7.43
2022-08-28T18:47:02.640Z,9.25
2022-08-28T18:49:30.587Z,7.10
2022-08-28T18:51:58.449Z,7.57
2022-08-28T18:54:26.388Z,7.65
2022-08-28T18:57:04.089Z,7.45
2022-08-28T18:59:33.938Z,8.38
2022-08-28T19:02:02.443Z,6.13
2022-08-28T19:04:30.561Z,5.53
2022-08-28T19:06:58.674Z,6.45
2022-08-28T19:09:32.278Z,6.07
2022-08-28T19:12:00.519Z,9.13
2022-08-28T19:14:28.958Z,7.85
2022-08-28T19:16:56.968Z,8.07
2022-08-28T19:19:25.173Z,8.35
2022-08-28T19:21:55.661Z,7.10
2022-08-28T19:24:23.747Z,6.65
2022-08-28T19:26:51.613Z,6.90
2022-08-28T19:29:21.836Z,7.93
2022-08-28T19:31:49.619Z,7.57
2022-08-28T19:34:18.640Z,7.07
2022-08-28T19:36:46.552Z,6.72
2022-08-28T19:39:20.392Z,7.25
2022-08-28T19:41:48.691Z,7.35
2022-08-28T19:44:16.346Z,8.70
2022-08-28T19:46:45.276Z,8.32
2022-08-28T19:49:13.361Z,8.82
2022-08-28T19:51:42.360Z,9.20
2022-08-28T19:54:12.610Z,9.43
2022-08-28T19:56:42.522Z,9.45
2022-08-28T19:59:10.710Z,10.77
2022-08-28T20:01:40.580Z,15.18
2022-08-28T20:04:09.556Z,11.50
2022-08-28T20:06:39.118Z,10.15
2022-08-28T20:09:12.078Z,9.93
2022-08-28T20:11:40.723Z,10.20
2022-08-28T20:14:08.948Z,10.00
2022-08-28T20:16:39.840Z,8.55
2022-08-28T20:19:09.084Z,8.63
2022-08-28T20:21:40.172Z,9.95
2022-08-28T20:24:10.088Z,9.27
2022-08-28T20:26:38.277Z,9.43
2022-08-28T20:29:07.125Z,9.25
2022-08-28T20:31:36.532Z,10.93
2022-08-28T20:34:04.328Z,13.27
2022-08-28T20:36:32.510Z,9.45
2022-08-28T20:39:01.422Z,13.45
2022-08-28T20:41:29.758Z,10.02
2022-08-28T20:43:57.527Z,9.20
2022-08-28T20:46:26.275Z,9.90
2022-08-28T20:48:54.274Z,9.48
2022-08-28T20:51:42.120Z,9.07
2022-08-28T20:54:10.226Z,9.98
2022-08-28T20:56:38.458Z,9.80
2022-08-28T20:59:06.739Z,8.63
2022-08-28T21:01:35.314Z,7.80
2022-08-28T21:04:03.871Z,7.70
2022-08-28T21:06:32.320Z,8.77
2022-08-28T21:09:00.661Z,7.97
2022-08-28T21:11:29.239Z,6.53
2022-08-28T21:13:57.124Z,9.88
2022-08-28T21:16:25.187Z,13.98
2022-08-28T21:19:14.380Z,10.23
2022-08-28T21:21:41.642Z,8.65
2022-08-28T21:24:10.779Z,25.85
2022-08-28T21:26:42.701Z,9.38
2022-08-28T21:29:10.828Z,8.38
2022-08-28T21:31:41.992Z,8.85
2022-08-28T21:34:10.772Z,9.45
2022-08-28T21:36:39.798Z,13.68
2022-08-28T21:39:07.953Z,12.00
2022-08-28T21:41:35.655Z,8.00
2022-08-28T21:44:03.980Z,9.80
2022-08-28T21:46:32.164Z,11.45
2022-08-28T21:49:00.276Z,9.50
2022-08-28T21:51:28.058Z,8.68
2022-08-28T21:53:55.936Z,10.30
2022-08-28T21:56:25.172Z,11.40
2022-08-28T21:58:53.185Z,9.10
2022-08-28T22:01:21.805Z,8.05
2022-08-28T22:03:49.853Z,8.15
2022-08-28T22:06:19.601Z,9.90
2022-08-28T22:08:48.485Z,8.40
2022-08-28T22:11:17.024Z,12.32
2022-08-28T22:13:51.587Z,7.60
2022-08-28T22:16:20.124Z,9.23
2022-08-28T22:18:48.175Z,9.07
2022-08-28T22:21:35.759Z,12.88
2022-08-28T22:24:03.798Z,8.23
2022-08-28T22:26:31.929Z,9.60
2022-08-28T22:29:00.064Z,10.00
2022-08-28T22:31:28.551Z,9.77
2022-08-28T22:33:56.374Z,10.57
2022-08-28T22:36:24.536Z,10.65
2022-08-28T22:38:57.617Z,7.00
2022-08-28T22:41:25.853Z,7.03
2022-08-28T22:43:54.702Z,13.68
2022-08-28T22:46:22.953Z,8.18
2022-08-28T22:48:52.412Z,10.52
2022-08-28T22:51:20.191Z,12.27
2022-08-28T22:53:48.583Z,13.00
2022-08-28T22:56:17.909Z,9.98
2022-08-28T22:58:45.907Z,8.85
2022-08-28T23:01:19.385Z,7.28
2022-08-28T23:03:48.348Z,7.70
2022-08-28T23:06:16.670Z,13.20
2022-08-28T23:08:44.574Z,10.07
2022-08-28T23:11:12.563Z,7.55
2022-08-28T23:13:40.750Z,7.55
2022-08-28T23:16:09.111Z,17.02
2022-08-28T23:19:04.324Z,7.40
2022-08-28T23:21:26.506Z,7.28
2022-08-28T23:23:55.073Z,12.43
2022-08-28T23:26:23.446Z,7.55
2022-08-28T23:28:51.590Z,9.25
2022-08-28T23:31:19.869Z,12.70
2022-08-28T23:33:49.359Z,7.47
2022-08-28T23:36:18.247Z,5.50
2022-08-28T23:38:46.293Z,6.28
2022-08-28T23:41:14.356Z,6.07
2022-08-28T23:43:42.704Z,6.20
2022-08-28T23:46:13.666Z,6.65
2022-08-28T23:48:41.811Z,5.53
2022-08-28T23:51:10.840Z,6.20
2022-08-28T23:53:40.286Z,7.75
2022-08-28T23:56:08.257Z,8.65
2022-08-28T23:58:36.327Z,7.20
